This is the latest recevied weather packets stored in our database for station/object KE0SWK-13. If no packets are shown the sender has not sent any weather packets the latest 10 day(s).
| Time | Temp. | Humidity | Pressure | Rain* | Wind** | Luminosity | Snow |
|---|---|---|---|---|---|---|---|
| 1777989919 | 9.44° C | 81% | 1012.3 hPa | 0.25 mm | - | - | - |
| 1777988769 | 10° C | 83% | 1011.8 hPa | 1.27 mm | - | - | - |
| 1777986925 | 8.89° C | 86% | 1011.3 hPa | 1.27 mm | - | - | - |
| 1777981537 | 8.89° C | 88% | 1010 hPa | 0 mm | - | - | - |
| 1777977333 | 9.44° C | 91% | 1011.2 hPa | 0 mm | - | - | - |
| 1777971323 | 10° C | 88% | 1008.8 hPa | 7.62 mm | - | - | - |
| 1777969524 | 11.11° C | 87% | 1010.1 hPa | 5.33 mm | - | - | - |
| 1777958123 | 20° C | 64% | 1005.1 hPa | 0 mm | - | - | - |
| 1777952728 | 21.11° C | 60% | 1006.5 hPa | 0 mm | - | - | - |
| 1777949724 | 22.22° C | 58% | 1006.3 hPa | 0 mm | - | - | - |
| 1777948520 | 22.78° C | 57% | 1006 hPa | 0 mm | - | - | - |
| 1777941920 | 24.44° C | 53% | 1004.5 hPa | 0 mm | - | - | - |
| 1777934727 | 26.67° C | 46% | 1004.2 hPa | 0 mm | - | - | - |
| 1777931723 | 28.33° C | 42% | 1004.5 hPa | 0 mm | - | - | - |
| 1777929325 | 28.33° C | 41% | 1004.5 hPa | 0 mm | - | - | - |
| 1777927533 | 28.33° C | 41% | 1004.8 hPa | 0 mm | - | - | - |
| 1777926922 | 28.33° C | 41% | 1004.9 hPa | 0 mm | - | - | - |
| 1777926329 | 28.89° C | 41% | 1005 hPa | 0 mm | - | - | - |
| 1777925735 | 28.89° C | 41% | 1005.1 hPa | 0 mm | - | - | - |
| 1777923942 | 28.33° C | 41% | 1005.3 hPa | 0 mm | - | - | - |
| 1777918520 | 28.33° C | 43% | 1005.8 hPa | 0 mm | - | - | - |
| 1777916726 | 27.78° C | 43% | 1006.1 hPa | 0 mm | - | - | - |
| 1777913129 | 26.11° C | 44% | 1006.4 hPa | 0 mm | - | - | - |
| 1777911924 | 25° C | 47% | 1006.6 hPa | 0 mm | - | - | - |
| 1777910720 | 22.78° C | 48% | 1006.5 hPa | 0 mm | - | - | - |
* Rain latest hour (hover to see other rain measurements)
** Current wind speed in m/s (hover to see current wind gust speed)